< < Back
Terminal Aerodrome Forecast


Current Version              Previous Versions:   1  2  3  4  5  6  7  8  9  

Terminal Aerodrome Forecast

497
FTUS42 KFFC 231100
TAFFTY
TAF
KFTY 231136Z 2312/2412 00000KT P6SM SKC
     FM231600 32005KT P6SM FEW250
     FM240100 00000KT P6SM BKN200=

Latest METAR

044
SAUS70 KWBC 231400 RRB
MTRFTY
METAR KFTY 231353Z 00000KT 10SM CLR 09/06 A3015 RMK AO2 SLP211
T00890056


USA.gov is the U.S. government's official web portal to all federal, state and local government web resources and services.